createdAt,value
2022-10-22T00:01:06.740Z,21.10
2022-10-22T00:03:33.332Z,22.58
2022-10-22T00:05:59.899Z,21.77
2022-10-22T00:08:26.679Z,19.45
2022-10-22T00:10:53.398Z,20.02
2022-10-22T00:13:21.352Z,20.10
2022-10-22T00:15:48.890Z,18.77
2022-10-22T00:18:15.484Z,17.42
2022-10-22T00:20:42.211Z,20.98
2022-10-22T00:23:08.794Z,18.73
2022-10-22T00:25:35.891Z,20.88
2022-10-22T00:28:02.868Z,24.70
2022-10-22T00:30:30.748Z,16.90
2022-10-22T00:32:57.317Z,20.58
2022-10-22T00:35:23.896Z,17.55
2022-10-22T00:37:50.480Z,25.70
2022-10-22T00:40:17.101Z,20.45
2022-10-22T00:42:43.970Z,20.00
2022-10-22T00:45:18.730Z,17.23
2022-10-22T00:47:50.577Z,18.75
2022-10-22T00:52:46.828Z,20.73
2022-10-22T00:55:14.243Z,16.75
2022-10-22T00:57:41.211Z,22.00
2022-10-22T01:00:10.020Z,19.67
2022-10-22T01:02:36.727Z,23.35
2022-10-22T01:05:05.298Z,22.00
2022-10-22T01:07:38.249Z,22.73
2022-10-22T01:10:10.692Z,26.15
2022-10-22T01:12:46.307Z,24.27
2022-10-22T01:15:22.423Z,21.50
2022-10-22T01:17:58.310Z,23.10
2022-10-22T01:20:46.657Z,21.13
2022-10-22T01:23:24.258Z,18.80
2022-10-22T01:25:58.511Z,20.08
2022-10-22T01:28:43.836Z,21.63
2022-10-22T01:31:13.495Z,18.65
2022-10-22T01:33:40.767Z,23.23
2022-10-22T01:36:08.860Z,19.65
2022-10-22T01:38:36.404Z,21.35
2022-10-22T01:41:03.128Z,22.45
2022-10-22T01:43:29.639Z,18.00
2022-10-22T01:46:01.367Z,22.52
2022-10-22T01:48:40.336Z,23.05
2022-10-22T01:51:22.390Z,23.88
2022-10-22T01:56:36.324Z,28.88
2022-10-22T01:59:07.995Z,26.50
2022-10-22T02:01:46.312Z,28.83
2022-10-22T02:04:19.057Z,28.65
2022-10-22T02:06:47.848Z,24.80
2022-10-22T02:09:16.408Z,24.90
2022-10-22T02:11:44.590Z,24.00
2022-10-22T02:14:12.621Z,27.85
2022-10-22T02:16:44.324Z,24.73
2022-10-22T02:19:19.267Z,23.98
2022-10-22T02:21:45.998Z,22.85
2022-10-22T02:24:13.143Z,20.52
2022-10-22T02:26:46.292Z,22.38
2022-10-22T02:29:18.699Z,23.10
2022-10-22T02:31:48.826Z,20.50
2022-10-22T02:34:21.612Z,21.02
2022-10-22T02:36:50.522Z,18.27
2022-10-22T02:39:19.094Z,18.17
2022-10-22T02:41:45.723Z,18.83
2022-10-22T02:44:12.263Z,20.10
2022-10-22T02:46:40.141Z,19.77
2022-10-22T02:49:08.153Z,18.33
2022-10-22T02:51:34.770Z,18.55
2022-10-22T02:54:01.384Z,29.33
2022-10-22T02:56:27.946Z,15.60
2022-10-22T02:58:54.477Z,15.77
2022-10-22T03:01:21.338Z,18.05
2022-10-22T03:03:47.943Z,20.27
2022-10-22T03:06:16.261Z,16.00
2022-10-22T03:08:42.929Z,15.25
2022-10-22T03:11:09.617Z,17.33
2022-10-22T03:13:36.345Z,20.20
2022-10-22T03:16:02.926Z,16.10
2022-10-22T03:18:29.454Z,16.38
2022-10-22T03:21:07.780Z,18.50
2022-10-22T03:23:36.336Z,25.83
2022-10-22T03:26:04.367Z,21.50
2022-10-22T03:28:30.948Z,21.70
2022-10-22T03:30:57.504Z,21.73
2022-10-22T03:33:24.051Z,21.52
2022-10-22T03:35:50.754Z,25.08
2022-10-22T03:38:17.360Z,22.58
2022-10-22T03:40:46.401Z,28.27
2022-10-22T03:43:13.407Z,21.58
2022-10-22T03:45:39.996Z,26.67
2022-10-22T03:48:06.746Z,22.25
2022-10-22T03:50:33.427Z,19.80
2022-10-22T03:52:59.997Z,27.77
2022-10-22T03:55:26.731Z,17.67
2022-10-22T03:57:54.615Z,21.30
2022-10-22T04:00:21.429Z,24.10
2022-10-22T04:02:47.985Z,26.52
2022-10-22T04:07:46.185Z,26.63
2022-10-22T04:10:12.739Z,27.80
2022-10-22T04:12:39.303Z,30.60
2022-10-22T04:15:08.899Z,30.60
2022-10-22T04:17:36.151Z,30.15
2022-10-22T04:20:04.816Z,29.20
2022-10-22T04:22:33.661Z,26.42
2022-10-22T04:25:00.306Z,25.67
2022-10-22T04:27:30.573Z,29.10
2022-10-22T04:29:57.181Z,31.58
2022-10-22T04:32:25.205Z,31.17
2022-10-22T04:34:51.809Z,28.85
2022-10-22T04:37:18.388Z,30.63
2022-10-22T04:39:44.935Z,27.83
2022-10-22T04:42:11.564Z,23.70
2022-10-22T04:44:38.249Z,30.35
2022-10-22T04:47:04.885Z,32.67
2022-10-22T04:49:32.815Z,27.02
2022-10-22T04:51:59.383Z,28.45
2022-10-22T04:54:29.057Z,30.95
2022-10-22T04:56:58.897Z,26.15
2022-10-22T04:59:25.470Z,34.17
2022-10-22T05:01:52.021Z,30.83
2022-10-22T05:04:18.599Z,28.88
2022-10-22T05:06:46.937Z,31.50
2022-10-22T05:09:16.558Z,31.88
2022-10-22T05:11:44.817Z,36.78
2022-10-22T05:14:11.970Z,47.20
2022-10-22T05:16:38.820Z,40.72
2022-10-22T05:19:07.032Z,40.72
2022-10-22T05:21:34.588Z,43.75
2022-10-22T05:24:02.517Z,43.90
2022-10-22T05:26:29.832Z,40.78
2022-10-22T05:28:56.636Z,42.83
2022-10-22T05:31:23.736Z,43.15
2022-10-22T05:33:50.271Z,40.17
2022-10-22T05:36:19.334Z,47.47
2022-10-22T05:38:46.108Z,53.45
2022-10-22T05:41:15.397Z,49.17
2022-10-22T05:43:42.062Z,54.10
2022-10-22T05:46:10.223Z,49.95
2022-10-22T05:48:36.852Z,51.08
2022-10-22T05:51:04.537Z,41.75
2022-10-22T05:53:32.016Z,48.42
2022-10-22T05:56:00.953Z,42.58
2022-10-22T05:58:29.071Z,37.55
2022-10-22T06:01:00.507Z,42.03
2022-10-22T06:03:27.068Z,40.00
2022-10-22T06:05:54.154Z,36.13
2022-10-22T06:08:20.797Z,37.20
2022-10-22T06:10:47.387Z,33.40
2022-10-22T06:13:13.913Z,32.15
2022-10-22T06:15:41.784Z,33.55
2022-10-22T06:18:08.314Z,33.08
2022-10-22T06:20:35.283Z,33.53
2022-10-22T06:23:01.837Z,29.48
2022-10-22T06:25:28.404Z,32.55
2022-10-22T06:27:54.947Z,30.27
2022-10-22T06:30:21.491Z,32.15
2022-10-22T06:32:49.362Z,29.00
2022-10-22T06:35:16.084Z,32.00
2022-10-22T06:37:43.011Z,28.95
2022-10-22T06:40:10.874Z,30.17
2022-10-22T06:42:37.424Z,28.05
2022-10-22T06:45:05.266Z,22.83
2022-10-22T06:47:31.846Z,23.02
2022-10-22T06:49:59.723Z,44.85
2022-10-22T06:52:26.268Z,34.35
2022-10-22T06:54:52.837Z,46.63
2022-10-22T06:57:19.389Z,44.97
2022-10-22T06:59:46.396Z,30.45
2022-10-22T07:02:13.370Z,30.65
2022-10-22T07:04:39.913Z,36.35
2022-10-22T07:07:07.825Z,21.35
2022-10-22T07:09:34.353Z,19.88
2022-10-22T07:12:00.929Z,25.73
2022-10-22T07:14:27.442Z,19.38
2022-10-22T07:16:54.140Z,24.30
2022-10-22T07:19:20.689Z,20.23
2022-10-22T07:21:47.243Z,18.38
2022-10-22T07:24:15.142Z,23.05
2022-10-22T07:26:41.732Z,22.45
2022-10-22T07:29:08.295Z,26.02
2022-10-22T07:31:34.854Z,26.38
2022-10-22T07:34:01.447Z,22.55
2022-10-22T07:36:28.006Z,26.02
2022-10-22T07:38:56.479Z,17.02
2022-10-22T07:41:24.862Z,18.15
2022-10-22T07:43:51.450Z,18.38
2022-10-22T07:46:18.268Z,18.52
2022-10-22T07:48:44.831Z,21.40
2022-10-22T07:51:11.474Z,20.70
2022-10-22T07:53:38.231Z,24.48
2022-10-22T07:56:05.173Z,19.00
2022-10-22T07:58:33.367Z,18.63
2022-10-22T08:01:02.030Z,18.83
2022-10-22T08:03:29.265Z,17.77
2022-10-22T08:05:56.239Z,24.13
2022-10-22T08:08:25.834Z,23.67
2022-10-22T08:10:57.713Z,17.70
2022-10-22T08:13:24.260Z,17.33
2022-10-22T08:15:53.680Z,17.60
2022-10-22T08:18:23.135Z,15.35
2022-10-22T08:20:49.717Z,18.55
2022-10-22T08:23:16.251Z,14.48
2022-10-22T08:25:42.824Z,15.57
2022-10-22T08:28:09.818Z,15.80
2022-10-22T08:30:36.840Z,14.90
2022-10-22T08:33:05.084Z,13.60
2022-10-22T08:35:31.821Z,18.35
2022-10-22T08:37:58.411Z,20.23
2022-10-22T08:40:30.367Z,14.63
2022-10-22T08:43:18.254Z,13.25
2022-10-22T08:45:56.014Z,15.38
2022-10-22T08:48:34.434Z,15.32
2022-10-22T08:51:01.110Z,17.90
2022-10-22T08:53:34.287Z,19.67
2022-10-22T08:56:00.866Z,13.75
2022-10-22T08:58:35.755Z,14.88
2022-10-22T09:01:07.349Z,12.43
2022-10-22T09:03:45.997Z,11.75
2022-10-22T09:06:15.609Z,12.77
2022-10-22T09:08:44.726Z,9.93
2022-10-22T09:11:19.827Z,12.05
2022-10-22T09:13:47.833Z,13.73
2022-10-22T09:16:18.111Z,8.32
2022-10-22T09:18:57.132Z,13.02
2022-10-22T09:21:33.851Z,7.72
2022-10-22T09:24:04.928Z,7.88
2022-10-22T09:26:34.074Z,5.15
2022-10-22T09:29:01.259Z,6.28
2022-10-22T09:31:31.194Z,8.05
2022-10-22T09:34:00.213Z,7.38
2022-10-22T09:36:29.198Z,9.68
2022-10-22T09:38:55.955Z,6.88
2022-10-22T09:41:25.604Z,7.18
2022-10-22T09:43:52.181Z,5.47
2022-10-22T09:46:20.755Z,6.97
2022-10-22T09:48:50.093Z,8.80
2022-10-22T09:51:21.797Z,6.15
2022-10-22T09:53:56.360Z,7.28
2022-10-22T09:56:26.497Z,9.40
2022-10-22T09:58:55.559Z,7.88
2022-10-22T10:01:25.679Z,8.90
2022-10-22T10:03:53.146Z,5.85
2022-10-22T10:06:22.968Z,7.50
2022-10-22T10:08:50.237Z,5.63
2022-10-22T10:11:28.950Z,6.97
2022-10-22T10:14:08.476Z,8.75
2022-10-22T10:16:55.560Z,8.68
2022-10-22T10:19:41.759Z,7.95
2022-10-22T10:22:21.704Z,6.25
2022-10-22T10:24:59.146Z,7.25
2022-10-22T10:27:29.977Z,4.72
2022-10-22T10:30:03.945Z,6.15
2022-10-22T10:32:51.588Z,7.45
2022-10-22T10:35:25.323Z,4.95
2022-10-22T10:38:09.152Z,6.10
2022-10-22T10:40:44.907Z,4.50
2022-10-22T10:43:17.829Z,3.45
2022-10-22T10:45:57.441Z,5.10
2022-10-22T10:48:40.631Z,4.38
2022-10-22T10:51:21.956Z,3.05
2022-10-22T10:54:01.291Z,4.57
2022-10-22T10:56:39.092Z,4.07
2022-10-22T10:59:18.079Z,2.63
2022-10-22T11:01:59.474Z,3.05
2022-10-22T11:05:02.270Z,4.82
2022-10-22T11:07:36.586Z,4.05
2022-10-22T11:10:09.694Z,6.95
2022-10-22T11:12:42.414Z,11.63
2022-10-22T11:15:19.115Z,4.38
2022-10-22T11:17:48.177Z,3.58
2022-10-22T11:20:19.370Z,5.13
2022-10-22T11:23:17.519Z,5.68
2022-10-22T11:25:43.381Z,5.05
2022-10-22T11:28:17.244Z,4.97
2022-10-22T11:30:48.667Z,5.72
2022-10-22T11:33:19.133Z,3.58
2022-10-22T11:35:47.028Z,2.17
2022-10-22T11:38:17.358Z,3.08
2022-10-22T11:40:47.542Z,2.00
2022-10-22T11:43:27.196Z,3.53
2022-10-22T11:46:00.574Z,1.80
2022-10-22T11:48:34.313Z,3.15
2022-10-22T11:51:01.990Z,4.63
2022-10-22T11:53:33.073Z,4.28
2022-10-22T11:56:22.059Z,3.80
2022-10-22T11:58:52.251Z,5.97
2022-10-22T12:01:27.371Z,7.22
2022-10-22T12:04:22.295Z,3.95
2022-10-22T12:07:00.553Z,5.30
2022-10-22T12:09:30.653Z,2.33
2022-10-22T12:12:04.311Z,5.03
2022-10-22T12:14:34.459Z,3.15
2022-10-22T12:17:08.334Z,2.83
2022-10-22T12:19:37.930Z,1.90
2022-10-22T12:22:14.789Z,3.90
2022-10-22T12:24:46.004Z,6.15
2022-10-22T12:27:22.221Z,3.22
2022-10-22T12:29:54.648Z,5.55
2022-10-22T12:32:21.305Z,1.73
2022-10-22T12:37:17.538Z,5.53
2022-10-22T12:39:46.788Z,2.30
2022-10-22T12:42:15.062Z,4.47
2022-10-22T12:44:43.372Z,1.33
2022-10-22T12:47:15.478Z,6.70
2022-10-22T12:49:44.505Z,2.50
2022-10-22T12:52:14.664Z,2.03
2022-10-22T12:54:41.669Z,3.92
2022-10-22T12:57:14.663Z,2.83
2022-10-22T12:59:47.231Z,2.60
2022-10-22T13:02:19.769Z,2.42
2022-10-22T13:05:13.747Z,3.20
2022-10-22T13:07:43.632Z,8.55
2022-10-22T13:10:18.788Z,4.68
2022-10-22T13:12:50.224Z,2.30
2022-10-22T13:15:23.028Z,2.33
2022-10-22T13:17:49.738Z,1.60
2022-10-22T13:20:19.643Z,2.00
2022-10-22T13:22:58.346Z,5.20
2022-10-22T13:25:27.271Z,6.28
2022-10-22T13:27:57.377Z,2.58
2022-10-22T13:30:25.895Z,2.85
2022-10-22T13:32:54.791Z,1.23
2022-10-22T13:35:24.384Z,4.10
2022-10-22T13:37:50.939Z,3.83
2022-10-22T13:40:18.003Z,4.45
2022-10-22T13:42:44.842Z,5.88
2022-10-22T13:45:13.576Z,3.90
2022-10-22T13:47:40.968Z,3.17
2022-10-22T13:50:13.756Z,8.15
2022-10-22T13:52:43.722Z,2.58
2022-10-22T13:55:16.568Z,2.80
2022-10-22T13:57:43.367Z,3.35
2022-10-22T14:00:15.061Z,2.03
2022-10-22T14:05:10.131Z,4.15
2022-10-22T14:07:37.423Z,9.27
2022-10-22T14:10:13.453Z,2.65
2022-10-22T14:12:40.027Z,4.10
2022-10-22T14:15:07.873Z,4.90
2022-10-22T14:17:35.836Z,6.63
2022-10-22T14:20:02.403Z,7.13
2022-10-22T14:22:30.483Z,2.60
2022-10-22T14:24:57.112Z,4.20
2022-10-22T14:27:23.676Z,4.53
2022-10-22T14:29:50.234Z,6.28
2022-10-22T14:32:18.835Z,8.85
2022-10-22T14:34:47.527Z,3.42
2022-10-22T14:37:16.856Z,4.97
2022-10-22T14:39:43.707Z,7.75
2022-10-22T14:42:11.345Z,5.32
2022-10-22T14:44:37.931Z,15.45
2022-10-22T14:47:04.658Z,4.82
2022-10-22T14:49:31.217Z,7.95
2022-10-22T14:51:59.340Z,4.20
2022-10-22T14:54:26.121Z,1.77
2022-10-22T14:56:52.671Z,4.30
2022-10-22T14:59:19.229Z,8.80
2022-10-22T15:01:45.820Z,3.75
2022-10-22T15:04:12.402Z,4.85
2022-10-22T15:06:38.979Z,3.45
2022-10-22T15:09:06.945Z,4.05
2022-10-22T15:11:33.568Z,2.95
2022-10-22T15:14:00.117Z,3.13
2022-10-22T15:16:26.690Z,4.75
2022-10-22T15:18:53.278Z,3.65
2022-10-22T15:21:21.947Z,2.92
2022-10-22T15:23:49.266Z,2.53
2022-10-22T15:26:17.373Z,7.63
2022-10-22T15:28:43.933Z,3.65
2022-10-22T15:31:13.502Z,2.75
2022-10-22T15:33:41.417Z,10.30
2022-10-22T15:36:12.364Z,11.98
2022-10-22T15:38:39.245Z,4.10
2022-10-22T15:41:07.656Z,2.28
2022-10-22T15:43:35.940Z,8.68
2022-10-22T15:46:10.989Z,7.05
2022-10-22T15:48:37.583Z,6.18
2022-10-22T15:51:08.644Z,8.05
2022-10-22T15:53:35.231Z,6.23
2022-10-22T15:56:01.838Z,5.30
2022-10-22T15:58:28.394Z,16.70
2022-10-22T16:01:03.116Z,14.10
2022-10-22T16:06:02.099Z,5.15
2022-10-22T16:08:28.719Z,11.27
2022-10-22T16:10:55.326Z,4.20
2022-10-22T16:13:22.610Z,22.38
2022-10-22T16:15:49.321Z,5.70
2022-10-22T16:18:17.337Z,3.92
2022-10-22T16:20:44.046Z,3.92
2022-10-22T16:23:10.713Z,8.05
2022-10-22T16:25:38.318Z,12.45
2022-10-22T16:28:05.492Z,5.70
2022-10-22T16:30:32.836Z,12.07
2022-10-22T16:32:59.417Z,11.10
2022-10-22T16:35:28.343Z,16.17
2022-10-22T16:37:54.909Z,8.25
2022-10-22T16:40:21.677Z,4.28
2022-10-22T16:42:48.276Z,7.75
2022-10-22T16:47:46.788Z,7.00
2022-10-22T16:50:13.442Z,7.88
2022-10-22T16:52:41.510Z,7.72
2022-10-22T16:55:08.992Z,5.13
2022-10-22T16:57:35.745Z,8.40
2022-10-22T17:00:02.384Z,8.85
2022-10-22T17:02:28.955Z,7.65
2022-10-22T17:04:55.527Z,24.60
2022-10-22T17:07:22.117Z,13.18
2022-10-22T17:09:50.043Z,17.48
2022-10-22T17:12:16.749Z,13.85
2022-10-22T17:14:43.309Z,13.98
2022-10-22T17:17:09.876Z,15.88
2022-10-22T17:19:36.437Z,8.48
2022-10-22T17:22:02.993Z,6.32
2022-10-22T17:24:29.523Z,5.07
2022-10-22T17:26:57.513Z,5.10
2022-10-22T17:29:24.068Z,7.45
2022-10-22T17:31:50.687Z,11.10
2022-10-22T17:34:17.426Z,10.85
2022-10-22T17:36:44.605Z,8.50
2022-10-22T17:39:16.183Z,10.05
2022-10-22T17:41:42.757Z,12.43
2022-10-22T17:44:17.036Z,5.05
2022-10-22T17:46:43.865Z,7.75
2022-10-22T17:49:15.786Z,10.60
2022-10-22T17:54:10.076Z,16.45
2022-10-22T17:56:37.717Z,7.85
2022-10-22T17:59:04.300Z,12.73
2022-10-22T18:01:35.123Z,7.53
2022-10-22T18:04:03.573Z,12.80
2022-10-22T18:06:30.983Z,9.07
2022-10-22T18:08:57.829Z,10.43
2022-10-22T18:11:27.022Z,11.63
2022-10-22T18:13:56.003Z,13.65
2022-10-22T18:16:22.767Z,11.85
2022-10-22T18:18:52.683Z,6.80
2022-10-22T18:21:20.352Z,8.70
2022-10-22T18:23:47.088Z,9.48
2022-10-22T18:26:14.055Z,9.38
2022-10-22T18:28:40.987Z,15.90
2022-10-22T18:31:09.170Z,7.57
2022-10-22T18:33:36.506Z,4.75
2022-10-22T18:36:06.816Z,9.10
2022-10-22T18:38:33.498Z,11.45
2022-10-22T18:41:00.085Z,18.70
2022-10-22T18:43:26.723Z,14.55
2022-10-22T18:45:53.284Z,11.77
2022-10-22T18:48:20.780Z,8.02
2022-10-22T18:50:47.394Z,10.35
2022-10-22T18:53:16.740Z,12.80
2022-10-22T18:55:43.505Z,19.02
2022-10-22T18:58:10.042Z,8.57
2022-10-22T19:00:36.618Z,4.47
2022-10-22T19:03:03.300Z,7.60
2022-10-22T19:05:29.968Z,10.90
2022-10-22T19:07:56.543Z,18.17
2022-10-22T19:10:24.471Z,10.27
2022-10-22T19:12:51.068Z,10.48
2022-10-22T19:15:17.886Z,12.73
2022-10-22T19:17:44.671Z,11.13
2022-10-22T19:20:11.457Z,10.32
2022-10-22T19:22:38.038Z,8.57
2022-10-22T19:25:07.110Z,6.75
2022-10-22T19:27:37.616Z,15.18
2022-10-22T19:30:04.607Z,6.50
2022-10-22T19:32:31.366Z,7.70
2022-10-22T19:34:57.985Z,9.50
2022-10-22T19:37:24.651Z,7.10
2022-10-22T19:39:51.442Z,85.03
2022-10-22T19:42:18.002Z,66.45
2022-10-22T19:44:45.949Z,79.35
2022-10-22T19:47:12.528Z,41.17
2022-10-22T19:49:39.068Z,101.47
2022-10-22T19:52:05.722Z,144.55
2022-10-22T19:54:32.261Z,51.05
2022-10-22T19:56:58.932Z,51.67
2022-10-22T19:59:28.552Z,12.73
2022-10-22T20:01:59.329Z,9.70
2022-10-22T20:04:26.025Z,21.73
2022-10-22T20:06:52.592Z,13.57
2022-10-22T20:09:19.159Z,18.48
2022-10-22T20:11:45.882Z,53.72
2022-10-22T20:14:13.003Z,45.60
2022-10-22T20:16:40.503Z,15.55
2022-10-22T20:19:10.293Z,26.90
2022-10-22T20:21:36.981Z,9.05
2022-10-22T20:24:04.341Z,10.43
2022-10-22T20:26:30.937Z,7.40
2022-10-22T20:28:58.142Z,9.52
2022-10-22T20:31:26.384Z,10.45
2022-10-22T20:33:55.142Z,17.30
2022-10-22T20:36:23.982Z,14.75
2022-10-22T20:38:51.575Z,7.78
2022-10-22T20:41:20.776Z,8.10
2022-10-22T20:43:49.317Z,7.30
2022-10-22T20:46:18.723Z,11.98
2022-10-22T20:48:45.661Z,6.20
2022-10-22T20:51:12.964Z,6.22
2022-10-22T20:53:40.876Z,11.57
2022-10-22T20:56:08.097Z,10.23
2022-10-22T20:58:35.515Z,4.78
2022-10-22T21:01:02.143Z,7.90
2022-10-22T21:03:28.729Z,7.35
2022-10-22T21:05:55.374Z,6.60
2022-10-22T21:08:21.934Z,5.47
2022-10-22T21:10:49.885Z,6.45
2022-10-22T21:13:16.849Z,9.30
2022-10-22T21:15:43.463Z,24.85
2022-10-22T21:18:10.036Z,8.75
2022-10-22T21:20:38.274Z,33.30
2022-10-22T21:23:05.017Z,96.88
2022-10-22T21:25:31.631Z,128.00
2022-10-22T21:27:59.535Z,70.82
2022-10-22T21:30:26.200Z,31.58
2022-10-22T21:32:52.777Z,42.88
2022-10-22T21:35:19.369Z,231.50
2022-10-22T21:37:45.907Z,235.18
2022-10-22T21:40:12.719Z,159.63
2022-10-22T21:42:39.373Z,104.28
2022-10-22T21:45:12.184Z,445.42
2022-10-22T21:47:41.140Z,280.27
2022-10-22T21:50:08.508Z,188.27
2022-10-22T21:52:35.092Z,211.30
2022-10-22T21:55:01.657Z,77.30
2022-10-22T21:57:28.220Z,61.03
2022-10-22T21:59:54.796Z,39.50
2022-10-22T22:02:22.732Z,41.83
2022-10-22T22:04:49.286Z,64.85
2022-10-22T22:07:15.963Z,74.32
2022-10-22T22:09:42.518Z,89.60
2022-10-22T22:12:09.073Z,62.75
2022-10-22T22:14:35.648Z,53.30
2022-10-22T22:17:02.225Z,33.45
2022-10-22T22:19:30.156Z,34.70
2022-10-22T22:21:56.743Z,33.13
2022-10-22T22:24:23.342Z,27.02
2022-10-22T22:26:49.915Z,29.55
2022-10-22T22:29:16.482Z,29.75
2022-10-22T22:31:43.057Z,27.92
2022-10-22T22:34:12.524Z,32.97
2022-10-22T22:36:42.085Z,28.60
2022-10-22T22:39:11.704Z,33.75
2022-10-22T22:41:38.345Z,28.10
2022-10-22T22:44:05.610Z,30.15
2022-10-22T22:46:32.233Z,29.35
2022-10-22T22:48:58.857Z,29.27
2022-10-22T22:51:25.484Z,21.33
2022-10-22T22:53:53.476Z,16.25
2022-10-22T22:56:21.722Z,16.80
2022-10-22T22:58:48.724Z,19.23
2022-10-22T23:01:17.764Z,20.33
2022-10-22T23:03:45.195Z,20.65
2022-10-22T23:06:13.137Z,14.55
2022-10-22T23:08:39.927Z,20.30
2022-10-22T23:11:10.631Z,19.25
2022-10-22T23:13:38.432Z,15.75
2022-10-22T23:16:06.457Z,12.40
2022-10-22T23:18:33.058Z,9.23
2022-10-22T23:21:03.843Z,9.25
2022-10-22T23:23:30.415Z,14.23
2022-10-22T23:28:29.992Z,13.70
2022-10-22T23:30:56.562Z,16.38
2022-10-22T23:33:23.113Z,11.00
2022-10-22T23:35:49.660Z,16.38
2022-10-22T23:38:16.212Z,12.73
2022-10-22T23:40:42.815Z,18.25
2022-10-22T23:43:09.344Z,12.60
2022-10-22T23:45:37.302Z,7.03
2022-10-22T23:48:04.221Z,6.28
2022-10-22T23:50:30.803Z,4.82
2022-10-22T23:52:57.377Z,6.32
2022-10-22T23:55:24.054Z,6.85
2022-10-22T23:57:50.650Z,22.67
